sensor_id;sensor_type;location;lat;lon;timestamp;pressure;altitude;pressure_sealevel;temperature;humidity
55486;BME280;71262;-25.924;28.194;2023-12-20T00:00:30;85268.03;;;22.53;42.82
55486;BME280;71262;-25.924;28.194;2023-12-20T00:02:54;85261.30;;;22.28;42.43
55486;BME280;71262;-25.924;28.194;2023-12-20T00:05:20;85248.87;;;21.95;42.23
55486;BME280;71262;-25.924;28.194;2023-12-20T00:07:45;85245.98;;;22.09;41.70
55486;BME280;71262;-25.924;28.194;2023-12-20T00:10:11;85247.87;;;22.44;41.17
55486;BME280;71262;-25.924;28.194;2023-12-20T00:12:36;85237.68;;;21.92;41.43
55486;BME280;71262;-25.924;28.194;2023-12-20T00:15:01;85232.23;;;22.07;41.05
55486;BME280;71262;-25.924;28.194;2023-12-20T00:17:27;85232.21;;;21.95;41.21
55486;BME280;71262;-25.924;28.194;2023-12-20T00:19:52;85240.68;;;21.96;43.03
55486;BME280;71262;-25.924;28.194;2023-12-20T00:22:18;85250.68;;;21.99;44.22
55486;BME280;71262;-25.924;28.194;2023-12-20T00:24:43;85256.92;;;22.50;45.13
55486;BME280;71262;-25.924;28.194;2023-12-20T00:27:09;85251.93;;;22.11;46.23
55486;BME280;71262;-25.924;28.194;2023-12-20T00:29:35;85251.60;;;22.15;45.60
55486;BME280;71262;-25.924;28.194;2023-12-20T00:32:01;85252.07;;;22.49;42.51
55486;BME280;71262;-25.924;28.194;2023-12-20T00:34:26;85255.79;;;22.17;42.81
55486;BME280;71262;-25.924;28.194;2023-12-20T00:36:51;85255.24;;;22.12;44.29
55486;BME280;71262;-25.924;28.194;2023-12-20T00:39:16;85258.87;;;22.05;45.14
55486;BME280;71262;-25.924;28.194;2023-12-20T00:41:42;85267.09;;;22.44;46.51
55486;BME280;71262;-25.924;28.194;2023-12-20T00:44:07;85271.70;;;22.20;44.94
55486;BME280;71262;-25.924;28.194;2023-12-20T00:46:33;85269.44;;;22.04;42.55
55486;BME280;71262;-25.924;28.194;2023-12-20T00:48:58;85271.09;;;22.05;42.37
55486;BME280;71262;-25.924;28.194;2023-12-20T00:51:24;85282.43;;;22.13;41.96
55486;BME280;71262;-25.924;28.194;2023-12-20T00:53:51;85288.42;;;21.97;41.85
55486;BME280;71262;-25.924;28.194;2023-12-20T00:56:15;85290.57;;;21.98;41.54
55486;BME280;71262;-25.924;28.194;2023-12-20T00:58:41;85297.11;;;22.34;41.14
55486;BME280;71262;-25.924;28.194;2023-12-20T01:01:06;85320.39;;;22.08;41.06
55486;BME280;71262;-25.924;28.194;2023-12-20T01:03:32;85348.58;;;22.06;40.89
55486;BME280;71262;-25.924;28.194;2023-12-20T01:05:57;85358.48;;;21.92;41.04
55486;BME280;71262;-25.924;28.194;2023-12-20T01:08:22;85352.01;;;22.31;40.46
55486;BME280;71262;-25.924;28.194;2023-12-20T01:10:47;85333.16;;;22.35;40.41
55486;BME280;71262;-25.924;28.194;2023-12-20T01:13:13;85308.89;;;22.15;40.53
55486;BME280;71262;-25.924;28.194;2023-12-20T01:15:38;85307.00;;;22.06;42.33
55486;BME280;71262;-25.924;28.194;2023-12-20T01:18:04;85320.61;;;21.64;43.75
55486;BME280;71262;-25.924;28.194;2023-12-20T01:20:30;85332.86;;;21.87;44.96
55486;BME280;71262;-25.924;28.194;2023-12-20T01:22:55;85329.49;;;21.94;45.98
55486;BME280;71262;-25.924;28.194;2023-12-20T01:25:21;85312.53;;;22.00;46.42
55486;BME280;71262;-25.924;28.194;2023-12-20T01:27:45;85284.10;;;22.39;45.13
55486;BME280;71262;-25.924;28.194;2023-12-20T01:30:11;85285.99;;;22.11;43.28
55486;BME280;71262;-25.924;28.194;2023-12-20T01:32:37;85307.40;;;21.98;43.87
55486;BME280;71262;-25.924;28.194;2023-12-20T01:35:03;85322.45;;;22.07;45.34
55486;BME280;71262;-25.924;28.194;2023-12-20T01:37:28;85313.59;;;21.92;46.23
55486;BME280;71262;-25.924;28.194;2023-12-20T01:39:53;85301.43;;;22.18;46.78
55486;BME280;71262;-25.924;28.194;2023-12-20T01:42:19;85294.31;;;22.19;44.00
55486;BME280;71262;-25.924;28.194;2023-12-20T01:44:44;85302.94;;;22.16;42.82
55486;BME280;71262;-25.924;28.194;2023-12-20T01:47:09;85310.20;;;22.00;42.66
55486;BME280;71262;-25.924;28.194;2023-12-20T01:49:35;85312.80;;;21.92;42.55
55486;BME280;71262;-25.924;28.194;2023-12-20T01:52:00;85314.35;;;22.31;42.05
55486;BME280;71262;-25.924;28.194;2023-12-20T01:54:26;85312.42;;;22.23;41.82
55486;BME280;71262;-25.924;28.194;2023-12-20T01:56:51;85307.74;;;22.37;41.93
55486;BME280;71262;-25.924;28.194;2023-12-20T01:59:18;85300.43;;;22.14;41.62
55486;BME280;71262;-25.924;28.194;2023-12-20T02:01:42;85298.56;;;21.65;41.75
55486;BME280;71262;-25.924;28.194;2023-12-20T02:04:07;85300.87;;;21.92;41.57
55486;BME280;71262;-25.924;28.194;2023-12-20T02:06:34;85301.49;;;22.00;40.97
55486;BME280;71262;-25.924;28.194;2023-12-20T02:08:58;85298.32;;;22.23;40.93
55486;BME280;71262;-25.924;28.194;2023-12-20T02:11:24;85296.58;;;22.05;40.94
55486;BME280;71262;-25.924;28.194;2023-12-20T02:13:49;85301.85;;;22.20;40.69
55486;BME280;71262;-25.924;28.194;2023-12-20T02:16:14;85301.70;;;21.68;42.90
55486;BME280;71262;-25.924;28.194;2023-12-20T02:18:40;85299.87;;;21.87;44.63
55486;BME280;71262;-25.924;28.194;2023-12-20T02:21:05;85297.70;;;21.71;45.56
55486;BME280;71262;-25.924;28.194;2023-12-20T02:23:30;85301.45;;;22.17;46.71
55486;BME280;71262;-25.924;28.194;2023-12-20T02:25:56;85308.28;;;21.88;46.87
55486;BME280;71262;-25.924;28.194;2023-12-20T02:28:21;85311.68;;;22.26;43.71
55486;BME280;71262;-25.924;28.194;2023-12-20T02:30:46;85312.94;;;22.43;43.46
55486;BME280;71262;-25.924;28.194;2023-12-20T02:33:13;85311.31;;;21.76;45.35
55486;BME280;71262;-25.924;28.194;2023-12-20T02:35:38;85309.95;;;21.60;46.49
55486;BME280;71262;-25.924;28.194;2023-12-20T02:38:03;85313.41;;;21.62;47.72
55486;BME280;71262;-25.924;28.194;2023-12-20T02:40:29;85318.76;;;22.11;44.30
55486;BME280;71262;-25.924;28.194;2023-12-20T02:42:54;85318.00;;;22.21;43.35
55486;BME280;71262;-25.924;28.194;2023-12-20T02:45:20;85317.90;;;21.91;45.45
55486;BME280;71262;-25.924;28.194;2023-12-20T02:47:45;85320.86;;;21.52;47.08
55486;BME280;71262;-25.924;28.194;2023-12-20T02:50:11;85325.83;;;21.86;47.96
55486;BME280;71262;-25.924;28.194;2023-12-20T02:52:37;85336.45;;;21.66;45.99
55486;BME280;71262;-25.924;28.194;2023-12-20T02:55:03;85344.69;;;22.02;43.39
55486;BME280;71262;-25.924;28.194;2023-12-20T02:57:28;85352.42;;;21.74;43.74
55486;BME280;71262;-25.924;28.194;2023-12-20T02:59:53;85353.50;;;22.03;42.91
55486;BME280;71262;-25.924;28.194;2023-12-20T03:02:18;85353.79;;;21.76;42.98
55486;BME280;71262;-25.924;28.194;2023-12-20T03:04:44;85354.70;;;21.76;42.87
55486;BME280;71262;-25.924;28.194;2023-12-20T03:07:09;85358.74;;;21.84;42.68
55486;BME280;71262;-25.924;28.194;2023-12-20T03:09:35;85361.62;;;22.10;42.47
55486;BME280;71262;-25.924;28.194;2023-12-20T03:12:01;85360.29;;;21.75;42.42
55486;BME280;71262;-25.924;28.194;2023-12-20T03:14:26;85358.44;;;21.70;42.57
55486;BME280;71262;-25.924;28.194;2023-12-20T03:16:52;85350.01;;;22.15;42.00
55486;BME280;71262;-25.924;28.194;2023-12-20T03:19:18;85347.09;;;22.17;42.32
55486;BME280;71262;-25.924;28.194;2023-12-20T03:21:43;85346.74;;;21.96;41.89
55486;BME280;71262;-25.924;28.194;2023-12-20T03:24:08;85347.45;;;21.98;41.72
55486;BME280;71262;-25.924;28.194;2023-12-20T03:26:34;85343.53;;;22.21;41.57
55486;BME280;71262;-25.924;28.194;2023-12-20T03:28:59;85348.04;;;21.86;41.78
55486;BME280;71262;-25.924;28.194;2023-12-20T03:31:25;85351.42;;;21.91;41.67
55486;BME280;71262;-25.924;28.194;2023-12-20T03:33:50;85350.84;;;22.17;41.59
55486;BME280;71262;-25.924;28.194;2023-12-20T03:36:16;85353.66;;;21.81;41.72
55486;BME280;71262;-25.924;28.194;2023-12-20T03:38:41;85346.52;;;21.75;41.60
55486;BME280;71262;-25.924;28.194;2023-12-20T03:41:08;85341.80;;;22.05;41.73
55486;BME280;71262;-25.924;28.194;2023-12-20T03:43:33;85336.21;;;21.86;41.73
55486;BME280;71262;-25.924;28.194;2023-12-20T03:45:58;85332.48;;;22.05;41.29
55486;BME280;71262;-25.924;28.194;2023-12-20T03:48:23;85327.58;;;21.84;41.67
55486;BME280;71262;-25.924;28.194;2023-12-20T03:50:48;85332.39;;;21.62;41.95
55486;BME280;71262;-25.924;28.194;2023-12-20T03:53:13;85334.54;;;22.00;41.34
55486;BME280;71262;-25.924;28.194;2023-12-20T03:55:39;85343.19;;;22.13;41.52
55486;BME280;71262;-25.924;28.194;2023-12-20T03:58:05;85351.29;;;21.87;41.61
55486;BME280;71262;-25.924;28.194;2023-12-20T04:00:30;85358.58;;;21.82;41.86
55486;BME280;71262;-25.924;28.194;2023-12-20T04:02:55;85360.63;;;21.80;41.89
55486;BME280;71262;-25.924;28.194;2023-12-20T04:05:20;85368.32;;;22.09;41.14
55486;BME280;71262;-25.924;28.194;2023-12-20T04:07:46;85373.17;;;21.75;43.36
55486;BME280;71262;-25.924;28.194;2023-12-20T04:10:11;85376.44;;;21.85;45.07
55486;BME280;71262;-25.924;28.194;2023-12-20T04:12:37;85375.27;;;21.82;46.72
55486;BME280;71262;-25.924;28.194;2023-12-20T04:15:02;85373.47;;;22.12;47.31
55486;BME280;71262;-25.924;28.194;2023-12-20T04:17:28;85376.09;;;22.06;48.74
55486;BME280;71262;-25.924;28.194;2023-12-20T04:19:53;85374.08;;;21.95;49.21
55486;BME280;71262;-25.924;28.194;2023-12-20T04:22:18;85374.44;;;22.06;45.93
55486;BME280;71262;-25.924;28.194;2023-12-20T04:24:44;85382.12;;;21.62;45.38
55486;BME280;71262;-25.924;28.194;2023-12-20T04:27:09;85388.12;;;21.91;47.07
55486;BME280;71262;-25.924;28.194;2023-12-20T04:29:35;85394.92;;;22.17;48.20
55486;BME280;71262;-25.924;28.194;2023-12-20T04:32:00;85399.32;;;21.73;49.04
55486;BME280;71262;-25.924;28.194;2023-12-20T04:34:25;85410.32;;;22.13;48.64
55486;BME280;71262;-25.924;28.194;2023-12-20T04:36:50;85412.64;;;21.63;45.73
55486;BME280;71262;-25.924;28.194;2023-12-20T04:39:15;85419.58;;;21.68;46.24
55486;BME280;71262;-25.924;28.194;2023-12-20T04:41:40;85426.79;;;22.01;47.55
55486;BME280;71262;-25.924;28.194;2023-12-20T04:44:06;85434.61;;;21.86;48.93
55486;BME280;71262;-25.924;28.194;2023-12-20T04:46:31;85438.86;;;21.91;49.86
55486;BME280;71262;-25.924;28.194;2023-12-20T04:48:56;85444.15;;;22.09;47.48
55486;BME280;71262;-25.924;28.194;2023-12-20T04:51:22;85453.44;;;21.98;45.52
55486;BME280;71262;-25.924;28.194;2023-12-20T04:53:47;85470.25;;;22.19;44.90
55486;BME280;71262;-25.924;28.194;2023-12-20T04:56:13;85486.70;;;21.95;44.43
55486;BME280;71262;-25.924;28.194;2023-12-20T04:58:38;85497.12;;;21.81;44.16
55486;BME280;71262;-25.924;28.194;2023-12-20T05:01:04;85503.91;;;21.81;43.81
55486;BME280;71262;-25.924;28.194;2023-12-20T05:03:29;85508.29;;;22.09;45.33
55486;BME280;71262;-25.924;28.194;2023-12-20T05:05:55;85511.25;;;21.93;47.02
55486;BME280;71262;-25.924;28.194;2023-12-20T05:08:20;85516.10;;;21.63;48.33
55486;BME280;71262;-25.924;28.194;2023-12-20T05:10:45;85521.12;;;22.14;49.25
55486;BME280;71262;-25.924;28.194;2023-12-20T05:13:11;85517.42;;;21.78;47.93
55486;BME280;71262;-25.924;28.194;2023-12-20T05:15:36;85508.71;;;22.16;45.06
55486;BME280;71262;-25.924;28.194;2023-12-20T05:18:02;85499.99;;;21.81;46.92
55486;BME280;71262;-25.924;28.194;2023-12-20T05:20:28;85495.37;;;21.92;48.41
55486;BME280;71262;-25.924;28.194;2023-12-20T05:22:53;85484.51;;;21.65;49.70
55486;BME280;71262;-25.924;28.194;2023-12-20T05:25:19;85472.40;;;21.93;49.94
55486;BME280;71262;-25.924;28.194;2023-12-20T05:27:45;85460.17;;;22.10;46.13
55486;BME280;71262;-25.924;28.194;2023-12-20T05:30:11;85462.98;;;21.62;47.01
55486;BME280;71262;-25.924;28.194;2023-12-20T05:32:36;85475.67;;;21.94;48.33
55486;BME280;71262;-25.924;28.194;2023-12-20T05:35:01;85491.63;;;21.36;49.75
55486;BME280;71262;-25.924;28.194;2023-12-20T05:37:27;85488.26;;;21.54;47.89
55486;BME280;71262;-25.924;28.194;2023-12-20T05:39:52;85472.35;;;21.91;45.17
55486;BME280;71262;-25.924;28.194;2023-12-20T05:42:17;85465.85;;;21.63;46.94
55486;BME280;71262;-25.924;28.194;2023-12-20T05:44:43;85467.20;;;21.91;48.51
55486;BME280;71262;-25.924;28.194;2023-12-20T05:47:08;85472.46;;;21.58;49.59
55486;BME280;71262;-25.924;28.194;2023-12-20T05:49:34;85463.19;;;21.97;46.08
55486;BME280;71262;-25.924;28.194;2023-12-20T05:51:59;85460.87;;;22.13;45.43
55486;BME280;71262;-25.924;28.194;2023-12-20T05:54:25;85474.82;;;21.95;47.21
55486;BME280;71262;-25.924;28.194;2023-12-20T05:56:50;85486.92;;;21.63;48.75
55486;BME280;71262;-25.924;28.194;2023-12-20T05:59:16;85488.30;;;21.97;49.38
55486;BME280;71262;-25.924;28.194;2023-12-20T06:01:41;85491.80;;;21.97;45.69
55486;BME280;71262;-25.924;28.194;2023-12-20T06:04:06;85492.90;;;21.71;45.88
55486;BME280;71262;-25.924;28.194;2023-12-20T06:06:32;85495.06;;;21.79;47.60
55486;BME280;71262;-25.924;28.194;2023-12-20T06:08:57;85492.51;;;21.81;48.89
55486;BME280;71262;-25.924;28.194;2023-12-20T06:11:23;85486.20;;;22.01;48.13
55486;BME280;71262;-25.924;28.194;2023-12-20T06:13:48;85485.41;;;22.06;45.11
55486;BME280;71262;-25.924;28.194;2023-12-20T06:16:13;85488.64;;;21.65;46.36
55486;BME280;71262;-25.924;28.194;2023-12-20T06:18:39;85485.85;;;21.91;48.25
55486;BME280;71262;-25.924;28.194;2023-12-20T06:21:05;85479.86;;;21.91;49.55
55486;BME280;71262;-25.924;28.194;2023-12-20T06:23:30;85478.52;;;21.61;47.18
55486;BME280;71262;-25.924;28.194;2023-12-20T06:25:55;85477.38;;;21.93;44.74
55486;BME280;71262;-25.924;28.194;2023-12-20T06:28:20;85470.65;;;22.06;44.48
55486;BME280;71262;-25.924;28.194;2023-12-20T06:30:46;85466.70;;;21.95;44.40
55486;BME280;71262;-25.924;28.194;2023-12-20T06:33:11;85467.54;;;22.14;46.01
55486;BME280;71262;-25.924;28.194;2023-12-20T06:35:36;85469.49;;;21.95;48.22
55486;BME280;71262;-25.924;28.194;2023-12-20T06:38:01;85463.93;;;22.14;49.25
55486;BME280;71262;-25.924;28.194;2023-12-20T06:40:26;85465.38;;;22.33;50.48
55486;BME280;71262;-25.924;28.194;2023-12-20T06:42:51;85461.77;;;22.51;51.07
55486;BME280;71262;-25.924;28.194;2023-12-20T06:45:17;85463.63;;;22.29;51.80
55486;BME280;71262;-25.924;28.194;2023-12-20T06:47:42;85463.48;;;22.56;52.43
55486;BME280;71262;-25.924;28.194;2023-12-20T06:50:07;85465.69;;;22.53;53.09
55486;BME280;71262;-25.924;28.194;2023-12-20T06:52:32;85467.44;;;22.49;53.76
55486;BME280;71262;-25.924;28.194;2023-12-20T06:54:57;85466.21;;;22.47;54.45
55486;BME280;71262;-25.924;28.194;2023-12-20T06:57:22;85465.95;;;22.56;54.64
55486;BME280;71262;-25.924;28.194;2023-12-20T06:59:48;85460.83;;;22.54;55.15
55486;BME280;71262;-25.924;28.194;2023-12-20T07:02:14;85462.82;;;22.65;55.46
55486;BME280;71262;-25.924;28.194;2023-12-20T07:04:41;85459.95;;;22.46;55.69
55486;BME280;71262;-25.924;28.194;2023-12-20T07:07:04;85463.10;;;22.77;55.90
55486;BME280;71262;-25.924;28.194;2023-12-20T07:09:30;85460.70;;;22.86;56.33
55486;BME280;71262;-25.924;28.194;2023-12-20T07:11:54;85456.88;;;22.85;56.59
55486;BME280;71262;-25.924;28.194;2023-12-20T07:14:20;85450.94;;;22.92;56.82
55486;BME280;71262;-25.924;28.194;2023-12-20T07:16:46;85449.78;;;22.37;57.08
55486;BME280;71262;-25.924;28.194;2023-12-20T07:19:12;85447.52;;;22.38;51.93
55486;BME280;71262;-25.924;28.194;2023-12-20T07:21:38;85449.80;;;22.90;50.94
55486;BME280;71262;-25.924;28.194;2023-12-20T07:24:04;85451.51;;;22.71;52.67
55486;BME280;71262;-25.924;28.194;2023-12-20T07:26:30;85446.14;;;22.54;53.56
55486;BME280;71262;-25.924;28.194;2023-12-20T07:28:55;85449.15;;;22.60;54.26
55486;BME280;71262;-25.924;28.194;2023-12-20T07:31:21;85444.36;;;23.07;54.76
55486;BME280;71262;-25.924;28.194;2023-12-20T07:33:47;85437.80;;;23.10;55.22
55486;BME280;71262;-25.924;28.194;2023-12-20T07:36:13;85436.60;;;22.81;55.17
55486;BME280;71262;-25.924;28.194;2023-12-20T07:38:39;85432.80;;;22.77;50.46
55486;BME280;71262;-25.924;28.194;2023-12-20T07:41:04;85429.91;;;22.96;50.97
55486;BME280;71262;-25.924;28.194;2023-12-20T07:43:30;85429.40;;;22.69;52.33
55486;BME280;71262;-25.924;28.194;2023-12-20T07:45:56;85425.94;;;22.52;53.14
55486;BME280;71262;-25.924;28.194;2023-12-20T07:48:22;85422.77;;;23.07;53.92
55486;BME280;71262;-25.924;28.194;2023-12-20T07:50:48;85429.97;;;22.98;54.52
55486;BME280;71262;-25.924;28.194;2023-12-20T07:53:13;85427.65;;;22.54;52.14
55486;BME280;71262;-25.924;28.194;2023-12-20T07:55:40;85421.58;;;22.49;48.84
55486;BME280;71262;-25.924;28.194;2023-12-20T07:58:04;85425.10;;;22.77;50.74
55486;BME280;71262;-25.924;28.194;2023-12-20T08:00:30;85426.53;;;22.56;51.86
55486;BME280;71262;-25.924;28.194;2023-12-20T08:02:56;85427.40;;;23.08;52.67
55486;BME280;71262;-25.924;28.194;2023-12-20T08:05:22;85428.12;;;22.58;53.37
55486;BME280;71262;-25.924;28.194;2023-12-20T08:07:48;85425.26;;;22.90;53.87
55486;BME280;71262;-25.924;28.194;2023-12-20T08:10:13;85425.50;;;22.92;53.55
55486;BME280;71262;-25.924;28.194;2023-12-20T08:12:40;85419.41;;;22.92;48.76
55486;BME280;71262;-25.924;28.194;2023-12-20T08:15:06;85421.50;;;22.73;50.23
55486;BME280;71262;-25.924;28.194;2023-12-20T08:17:30;85419.60;;;22.98;51.35
55486;BME280;71262;-25.924;28.194;2023-12-20T08:19:57;85417.12;;;21.96;52.45
55486;BME280;71262;-25.924;28.194;2023-12-20T08:22:21;85417.65;;;22.80;52.31
55486;BME280;71262;-25.924;28.194;2023-12-20T08:24:46;85410.14;;;22.67;52.74
55486;BME280;71262;-25.924;28.194;2023-12-20T08:27:12;85410.52;;;22.95;49.01
55486;BME280;71262;-25.924;28.194;2023-12-20T08:29:38;85412.01;;;22.84;47.20
55486;BME280;71262;-25.924;28.194;2023-12-20T08:32:05;85410.11;;;23.38;49.41
55486;BME280;71262;-25.924;28.194;2023-12-20T08:34:30;85412.60;;;22.97;50.47
55486;BME280;71262;-25.924;28.194;2023-12-20T08:36:55;85409.10;;;23.20;51.38
55486;BME280;71262;-25.924;28.194;2023-12-20T08:39:20;85409.76;;;23.05;52.17
55486;BME280;71262;-25.924;28.194;2023-12-20T08:41:46;85404.57;;;23.07;48.39
55486;BME280;71262;-25.924;28.194;2023-12-20T08:44:12;85404.15;;;23.06;48.24
55486;BME280;71262;-25.924;28.194;2023-12-20T08:46:38;85399.69;;;23.05;49.88
55486;BME280;71262;-25.924;28.194;2023-12-20T08:49:04;85399.54;;;22.91;50.70
55486;BME280;71262;-25.924;28.194;2023-12-20T08:51:31;85399.79;;;23.06;51.61
55486;BME280;71262;-25.924;28.194;2023-12-20T08:53:55;85400.84;;;23.10;52.12
55486;BME280;71262;-25.924;28.194;2023-12-20T08:56:21;85397.68;;;22.90;48.51
55486;BME280;71262;-25.924;28.194;2023-12-20T08:58:47;85392.51;;;22.71;47.91
55486;BME280;71262;-25.924;28.194;2023-12-20T09:01:13;85398.48;;;23.15;49.58
55486;BME280;71262;-25.924;28.194;2023-12-20T09:03:40;85391.75;;;23.01;50.58
55486;BME280;71262;-25.924;28.194;2023-12-20T09:06:04;85387.70;;;23.04;51.19
55486;BME280;71262;-25.924;28.194;2023-12-20T09:08:31;85388.61;;;23.10;51.60
55486;BME280;71262;-25.924;28.194;2023-12-20T09:10:55;85380.56;;;22.63;49.06
55486;BME280;71262;-25.924;28.194;2023-12-20T09:13:21;85385.18;;;22.99;46.98
55486;BME280;71262;-25.924;28.194;2023-12-20T09:15:48;85383.98;;;22.83;48.80
55486;BME280;71262;-25.924;28.194;2023-12-20T09:18:12;85384.60;;;23.12;49.98
55486;BME280;71262;-25.924;28.194;2023-12-20T09:20:37;85385.28;;;23.20;51.02
55486;BME280;71262;-25.924;28.194;2023-12-20T09:23:03;85382.92;;;22.82;51.36
55486;BME280;71262;-25.924;28.194;2023-12-20T09:25:29;85381.19;;;22.66;51.39
55486;BME280;71262;-25.924;28.194;2023-12-20T09:27:55;85378.11;;;22.71;47.09
55486;BME280;71262;-25.924;28.194;2023-12-20T09:30:21;85376.01;;;22.92;48.97
55486;BME280;71262;-25.924;28.194;2023-12-20T09:32:46;85374.58;;;22.83;50.31
55486;BME280;71262;-25.924;28.194;2023-12-20T09:35:12;85372.03;;;22.90;50.99
55486;BME280;71262;-25.924;28.194;2023-12-20T09:37:38;85370.94;;;22.79;51.54
55486;BME280;71262;-25.924;28.194;2023-12-20T09:40:05;85369.23;;;22.69;51.71
55486;BME280;71262;-25.924;28.194;2023-12-20T09:42:37;85364.71;;;22.63;48.72
55486;BME280;71262;-25.924;28.194;2023-12-20T09:44:56;85364.81;;;23.14;47.94
55486;BME280;71262;-25.924;28.194;2023-12-20T09:47:24;85363.74;;;22.80;49.69
55486;BME280;71262;-25.924;28.194;2023-12-20T09:49:48;85357.13;;;22.79;50.63
55486;BME280;71262;-25.924;28.194;2023-12-20T09:52:13;85355.84;;;22.91;51.35
55486;BME280;71262;-25.924;28.194;2023-12-20T09:54:39;85353.57;;;22.81;51.62
55486;BME280;71262;-25.924;28.194;2023-12-20T09:57:05;85349.22;;;22.75;51.26
55486;BME280;71262;-25.924;28.194;2023-12-20T09:59:31;85342.26;;;22.71;47.17
55486;BME280;71262;-25.924;28.194;2023-12-20T10:01:57;85347.13;;;22.83;48.48
55486;BME280;71262;-25.924;28.194;2023-12-20T10:04:22;85343.78;;;22.97;49.91
55486;BME280;71262;-25.924;28.194;2023-12-20T10:06:48;85341.68;;;22.72;50.86
55486;BME280;71262;-25.924;28.194;2023-12-20T10:09:14;85340.55;;;22.54;51.45
55486;BME280;71262;-25.924;28.194;2023-12-20T10:11:39;85336.25;;;22.49;51.51
55486;BME280;71262;-25.924;28.194;2023-12-20T10:14:05;85336.45;;;22.66;50.22
55486;BME280;71262;-25.924;28.194;2023-12-20T10:16:32;85334.38;;;22.62;47.12
55486;BME280;71262;-25.924;28.194;2023-12-20T10:18:57;85333.62;;;22.54;49.55
55486;BME280;71262;-25.924;28.194;2023-12-20T10:21:23;85329.79;;;22.55;50.62
55486;BME280;71262;-25.924;28.194;2023-12-20T10:23:47;85329.62;;;22.69;51.42
55486;BME280;71262;-25.924;28.194;2023-12-20T10:26:19;85334.71;;;22.53;51.75
55486;BME280;71262;-25.924;28.194;2023-12-20T10:28:39;85335.29;;;22.53;51.72
55486;BME280;71262;-25.924;28.194;2023-12-20T10:31:05;85331.48;;;22.54;48.47
55486;BME280;71262;-25.924;28.194;2023-12-20T10:33:31;85328.16;;;22.72;48.47
55486;BME280;71262;-25.924;28.194;2023-12-20T10:35:56;85326.02;;;22.57;50.10
55486;BME280;71262;-25.924;28.194;2023-12-20T10:38:21;85324.91;;;22.75;51.36
55486;BME280;71262;-25.924;28.194;2023-12-20T10:40:47;85322.41;;;22.69;51.80
55486;BME280;71262;-25.924;28.194;2023-12-20T10:43:13;85319.16;;;22.73;51.70
55486;BME280;71262;-25.924;28.194;2023-12-20T10:45:39;85314.00;;;22.50;49.72
55486;BME280;71262;-25.924;28.194;2023-12-20T10:48:05;85307.17;;;22.68;47.47
55486;BME280;71262;-25.924;28.194;2023-12-20T10:50:30;85305.98;;;22.88;49.63
55486;BME280;71262;-25.924;28.194;2023-12-20T10:52:56;85310.18;;;22.57;50.99
55486;BME280;71262;-25.924;28.194;2023-12-20T10:55:20;85306.77;;;22.39;51.39
55486;BME280;71262;-25.924;28.194;2023-12-20T10:57:47;85307.41;;;22.51;51.60
55486;BME280;71262;-25.924;28.194;2023-12-20T11:00:14;85307.19;;;22.48;51.33
55486;BME280;71262;-25.924;28.194;2023-12-20T11:02:40;85306.38;;;22.66;47.69
55486;BME280;71262;-25.924;28.194;2023-12-20T11:05:10;85301.56;;;22.66;49.14
55486;BME280;71262;-25.924;28.194;2023-12-20T11:07:34;85299.98;;;22.37;50.67
55486;BME280;71262;-25.924;28.194;2023-12-20T11:09:59;85299.49;;;22.37;51.44
55486;BME280;71262;-25.924;28.194;2023-12-20T11:12:25;85299.45;;;22.78;51.64
55486;BME280;71262;-25.924;28.194;2023-12-20T11:14:47;85296.99;;;22.62;51.42
55486;BME280;71262;-25.924;28.194;2023-12-20T11:17:12;85299.53;;;22.36;48.64
55486;BME280;71262;-25.924;28.194;2023-12-20T11:22:04;85289.43;;;22.48;49.96
55486;BME280;71262;-25.924;28.194;2023-12-20T11:24:29;85288.50;;;22.71;51.02
55486;BME280;71262;-25.924;28.194;2023-12-20T11:26:57;85287.21;;;22.42;51.47
55486;BME280;71262;-25.924;28.194;2023-12-20T11:31:45;85280.83;;;22.62;49.21
55486;BME280;71262;-25.924;28.194;2023-12-20T11:34:14;85278.20;;;23.03;48.00
55486;BME280;71262;-25.924;28.194;2023-12-20T11:36:37;85273.73;;;22.67;49.98
55486;BME280;71262;-25.924;28.194;2023-12-20T11:39:05;85272.23;;;22.59;50.80
55486;BME280;71262;-25.924;28.194;2023-12-20T11:41:28;85263.66;;;22.97;51.34
55486;BME280;71262;-25.924;28.194;2023-12-20T11:43:54;85261.91;;;22.52;51.77
55486;BME280;71262;-25.924;28.194;2023-12-20T11:46:18;85258.39;;;22.58;50.75
55486;BME280;71262;-25.924;28.194;2023-12-20T11:48:45;85254.37;;;22.53;47.38
55486;BME280;71262;-25.924;28.194;2023-12-20T11:51:11;85258.27;;;22.78;49.55
55486;BME280;71262;-25.924;28.194;2023-12-20T11:53:35;85256.30;;;22.68;50.99
55486;BME280;71262;-25.924;28.194;2023-12-20T11:56:01;85252.31;;;22.60;51.91
55486;BME280;71262;-25.924;28.194;2023-12-20T11:58:26;85257.02;;;22.56;52.03
55486;BME280;71262;-25.924;28.194;2023-12-20T12:00:52;85250.74;;;22.81;52.11
55486;BME280;71262;-25.924;28.194;2023-12-20T12:03:18;85241.74;;;22.85;50.18
55486;BME280;71262;-25.924;28.194;2023-12-20T12:05:43;85242.71;;;22.85;47.61
55486;BME280;71262;-25.924;28.194;2023-12-20T12:08:09;85241.56;;;22.69;50.26
55486;BME280;71262;-25.924;28.194;2023-12-20T12:10:34;85241.56;;;22.74;51.35
55486;BME280;71262;-25.924;28.194;2023-12-20T12:13:00;85239.59;;;22.83;52.52
55486;BME280;71262;-25.924;28.194;2023-12-20T12:15:26;85233.95;;;22.59;52.59
55486;BME280;71262;-25.924;28.194;2023-12-20T12:17:56;85233.47;;;22.41;52.56
55486;BME280;71262;-25.924;28.194;2023-12-20T12:20:21;85227.85;;;22.42;49.81
55486;BME280;71262;-25.924;28.194;2023-12-20T12:22:43;85229.29;;;22.60;48.92
55486;BME280;71262;-25.924;28.194;2023-12-20T12:25:12;85227.01;;;22.61;50.41
55486;BME280;71262;-25.924;28.194;2023-12-20T12:27:34;85224.19;;;22.86;51.29
55486;BME280;71262;-25.924;28.194;2023-12-20T12:30:04;85220.75;;;22.55;52.05
55486;BME280;71262;-25.924;28.194;2023-12-20T12:32:26;85216.87;;;22.43;52.27
55486;BME280;71262;-25.924;28.194;2023-12-20T12:34:52;85215.28;;;22.63;52.24